Airfield :
LOGIN :

Register | Disclaimer

   EN    FR    IT 

 










Legend :    VFR   Marginal VFR   IFR   Intensive IFR   Very Intensive IFR
Visi :
Ceiling :
>= 8 km
>= 3000ft
5 to 8 km
1000 to 3000 ft
1500m to 5 km
500 to 1000 ft
800 to 1500m
200 to 500 ft
< 800m
< 200 ft
Symbols :   Thunderstorms  Fog  Heavy snow  Heavy precipitations  Wind > 20 kt
SIGMETs :     Misc.  Thunderstorms  Icing  Turbulence  Mountain Waves  Volcanic Ashes






- Airport Elevation : 184 ft
- IATA code : BRU


EBBR - Bruxelles

CURRENT METAR :
  • 280720Z 21009KT 9999 -RA BKN008 OVC013 07/06 Q1000 TEMPO 3500 RADZ SCT008 BKN016

EXPIRED METARs :
  • 280650Z 19008KT 9999 -RA BKN007 OVC013 07/06 Q1001 TEMPO 3500 RADZ
  • 280620Z 18008KT 7000 -RA BKN007 OVC014 06/05 Q1001 TEMPO 3500 RADZ
  • 280550Z 17007KT 9999 -RA FEW005 BKN008 OVC013 06/05 Q1002 TEMPO 3500 RADZ
  • 280520Z 17006KT 7000 RA FEW005 BKN007 OVC013 06/05 Q1003 TEMPO 3500 RADZ
  • 280450Z 17005KT 7000 RA FEW005 BKN007 OVC013 06/05 Q1004 TEMPO 3500 RADZ

TAF TAF EBBR
Valid from the 28 at 06:00 until the 29 at 12:00 UTC


280510Z 2806/2912 18006KT 6000 -RA SCT003 BKN006
TEMPO 2806/2812 3500 RADZ BKN004
BECMG 2810/2812 26015G27KT 9999 NSW SCT006 BKN012
PROB30
TEMPO 2812/2816 SHRA BKN010TCU
BECMG 2814/2816 SCT016 SCT035
BECMG 2818/2820 24010KT
TEMPO 2823/2903 4000 RA BKN014



MET'MAP, your aeronautical weather chart ! - Copyright ORBIFLY December 2007 - Disclaimer

ORBIFLY MET'MAP TEAM :

Programming & Development : Alexandra Zaïnal
Concept & original design : Baudouin d'Aumeries
Assistance for programming : Marc-Olivier Méhu
Technical & hardware support : Manuel Goepfert

Contact : metmap@orbifly.com




SOURCES & CREDITS :

   NOAA